Latest Weather Observations for Warrnambool

IDV60801

Issued at 3:02 am EDT Friday 6 March 2015 (issued every 30 minutes, with the page automatically refreshed every 10 minutes)

About weather observations | Map of weather stations | Latest weather observations for VIC | Other Formats
Station Details ID: 090186 Name: WARRNAMBOOL AIRPORT NDB Lat: -38.29 Lon: 142.45 Height: 70.8 m
Data from the previous 72 hours. | See also: Recent months at Warrnambool
Date/Time
EDT
Temp
°C
App
Temp
°C
Dew
Point
Rel
Hum
%
Delta-T
°C
Wind Press
QNH
hPa
Press
MSL
hPa
Rain
since 9 am
mm
Dir
 
Spd
km/h
Gust
km/h
Spd
kts
Gust
kts
06/03:00am 14.3 8.4 10.3 77 2.1 W 32 39 17 21 1013.4 1013.3 0.0
06/02:30am 13.8 8.3 10.4 80 1.8 W 30 35 16 19 1014.0 1013.8 0.0
06/02:00am 14.5 8.1 9.3 71 2.7 W 33 48 18 26 1014.5 1014.3 0.0
06/01:30am 13.9 8.2 9.9 77 2.1 W 30 43 16 23 1014.6 1014.4 0.0
06/01:00am 12.6 8.5 8.5 76 2.0 WNW 20 30 11 16 1014.8 1014.6 0.0
06/12:30am 12.9 9.0 8.6 75 2.2 WNW 19 26 10 14 1014.8 1014.6 0.0
06/12:00am 12.9 8.3 8.2 73 2.3 WNW 22 28 12 15 1015.1 1014.9 0.0
 
Date/Time
EDT
Temp
°C
App
Temp
°C
Dew
Point
Rel
Hum
%
Delta-T
°C
Wind Press
QNH
hPa
Press
MSL
hPa
Rain
since 9 am
mm
Dir
 
Spd
km/h
Gust
km/h
Spd
kts
Gust
kts
05/11:30pm 13.3 8.8 8.4 72 2.5 WNW 22 32 12 17 1015.6 1015.4 0.0
05/11:00pm 13.1 9.0 8.0 71 2.5 WNW 19 26 10 14 1016.0 1015.8 0.0
05/10:30pm 13.1 8.7 7.3 68 2.8 W 20 28 11 15 1016.4 1016.3 0.0
05/10:00pm 13.8 7.3 8.0 68 2.9 W 32 43 17 23 1016.4 1016.3 0.0
05/09:30pm 13.6 8.9 7.6 67 3.0 WNW 22 30 12 16 1016.6 1016.5 0.0
05/09:00pm 14.0 8.0 7.1 63 3.4 W 28 37 15 20 1016.6 1016.5 0.0
05/08:30pm 13.8 7.7 6.7 62 3.4 W 28 35 15 19 1016.6 1016.5 0.0
05/08:10pm 14.1 7.7 6.9 62 3.5 W 30 48 16 26 1016.8 1016.7 0.0
05/08:00pm 14.4 7.3 6.5 59 3.8 W 33 43 18 23 1016.8 1016.7 0.0
05/07:30pm 14.7 7.2 6.3 57 4.1 W 35 50 19 27 1017.1 1017.0 0.0
05/07:00pm 14.9 6.6 6.0 55 4.3 WSW 39 48 21 26 1017.1 1017.0 0.0
05/06:30pm 15.4 8.0 6.7 56 4.3 WSW 35 46 19 25 1017.2 1017.1 0.0
05/06:00pm 15.7 7.7 5.9 52 4.7 WSW 37 48 20 26 1017.4 1017.3 0.0
05/05:30pm 15.9 9.0 7.4 57 4.2 WSW 33 46 18 25 1017.5 1017.4 0.0
05/05:00pm 16.1 8.1 5.7 50 5.0 WSW 37 48 20 26 1018.0 1017.9 0.0
05/04:30pm 16.6 8.3 4.3 44 5.8 WSW 37 46 20 25 1018.2 1018.1 0.0
05/04:00pm 16.7 8.7 5.6 48 5.4 WSW 37 50 20 27 1018.3 1018.2 0.0
05/03:30pm 16.5 8.6 6.1 50 5.1 WSW 37 48 20 26 1018.5 1018.4 0.0
05/03:00pm 17.2 10.4 7.0 51 5.1 SW 32 43 17 23 1018.6 1018.5 0.0
05/02:30pm 16.6 9.4 6.1 50 5.1 WSW 33 48 18 26 1018.9 1018.8 0.0
05/02:00pm 18.3 10.3 5.8 44 6.1 SW 37 52 20 28 1019.0 1018.9 0.0
05/01:30pm 17.5 9.7 5.1 44 6.0 WSW 35 48 19 26 1019.1 1019.0 0.0
05/01:00pm 16.5 9.8 7.2 54 4.6 SW 32 44 17 24 1019.4 1019.3 0.0
05/12:30pm 16.4 9.8 6.2 51 5.0 SW 30 44 16 24 1019.6 1019.5 0.0
05/12:00pm 15.6 7.9 5.5 51 4.8 SW 35 48 19 26 1020.0 1019.9 0.0
05/11:30am 16.3 8.0 5.9 50 5.0 SW 39 50 21 27 1020.0 1019.9 0.0
05/11:00am 15.5 8.2 7.0 57 4.2 SW 35 44 19 24 1019.6 1019.5 0.0
05/10:30am 15.4 7.4 5.9 53 4.6 SSW 37 48 20 26 1019.2 1019.1 0.0
05/10:00am 15.5 6.8 6.0 53 4.6 SSW 41 56 22 30 1018.9 1018.8 0.0
05/09:30am 15.0 5.7 5.0 51 4.7 SSW 43 56 23 30 1018.7 1018.6 0.0
05/09:00am 14.2 4.5 5.6 56 4.1 SSW 46 56 25 30 1018.4 1018.3 1.4
05/08:30am 13.2 5.0 6.5 64 3.2 SSW 39 50 21 27 1018.0 1017.9 1.4
05/08:04am 13.2 4.9 6.1 62 3.4 SSW 39 57 21 31 1017.7 1017.6 1.4
05/08:00am 13.0 5.6 6.8 66 3.0 SSW 35 48 19 26 1017.7 1017.6 1.4
05/07:30am 12.5 3.7 5.4 62 3.3 SW 41 52 22 28 1017.3 1017.2 1.4
05/07:02am 12.2 3.8 5.4 63 3.2 SW 39 57 21 31 1016.8 1016.7 1.4
05/07:00am 12.2 3.0 5.4 63 3.2 SW 43 57 23 31 1016.8 1016.7 1.4
05/06:30am 12.4 3.8 4.9 60 3.5 SW 39 54 21 29 1016.1 1015.9 1.4
05/06:00am 12.2 1.8 4.2 58 3.6 SW 48 63 26 34 1016.0 1015.8 1.4
05/05:30am 12.7 3.3 4.2 56 3.9 SW 43 61 23 33 1015.7 1015.5 1.4
05/05:00am 12.5 3.1 4.2 57 3.8 SW 43 61 23 33 1015.7 1015.5 1.4
05/04:41am 12.9 3.2 4.1 55 4.0 SW 44 63 24 34 1015.4 1015.2 1.4
05/04:30am 12.4 1.9 3.9 56 3.8 SW 48 63 26 34 1015.3 1015.1 1.4
05/04:22am 12.6 1.5 2.7 51 4.4 SW 50 69 27 37 1015.1 1014.9 1.4
05/04:13am 11.9 3.9 3.9 58 3.6 WSW 35 69 19 37 1015.0 1014.8 1.4
05/04:00am 11.8 3.5 6.1 68 2.7 WSW 39 52 21 28 1014.6 1014.4 1.4
05/03:56am 12.1 3.8 6.2 67 2.8 SW 39 52 21 28 1014.6 1014.4 1.4
05/03:30am 10.7 1.2 6.8 77 1.8 SW 46 70 25 38 1014.6 1014.4 1.4
05/03:19am 12.8 3.7 5.7 62 3.3 SW 43 61 23 33 1014.1 1013.9 1.4
05/03:00am 12.7 1.5 4.2 56 3.9 SW 52 65 28 35 1014.2 1014.0 1.4
05/02:30am 13.1 2.3 6.0 62 3.4 SW 52 70 28 38 1013.8 1013.6 1.4
05/02:00am 13.2 4.1 8.3 72 2.4 SW 46 72 25 39 1013.5 1013.3 1.4
05/01:30am 13.7 3.8 9.9 78 2.0 WSW 52 74 28 40 1012.7 1012.6 1.4
05/01:00am 14.8 6.4 9.6 71 2.7 WSW 44 65 24 35 1011.7 1011.6 1.4
05/12:30am 13.8 7.0 12.0 89 1.0 WSW 39 59 21 32 1011.5 1011.4 1.4
05/12:28am 13.8 7.0 11.8 88 1.1 WSW 39 59 21 32 1011.4 1011.3 1.4
05/12:22am 13.5 6.2 11.6 88 1.0 WSW 41 59 22 32 1011.4 1011.3 1.4
05/12:12am 13.8 7.7 13.0 95 0.4 WSW 37 50 20 27 1011.5 1011.4 1.4
05/12:00am 14.2 7.8 13.1 93 0.6 W 39 56 21 30 1011.2 1011.1 0.8
 
Date/Time
EDT
Temp
°C
App
Temp
°C
Dew
Point
Rel
Hum
%
Delta-T
°C
Wind Press
QNH
hPa
Press
MSL
hPa
Rain
since 9 am
mm
Dir
 
Spd
km/h
Gust
km/h
Spd
kts
Gust
kts
04/11:58pm 14.2 8.2 13.2 94 0.6 W 37 56 20 30 1011.2 1011.1 0.8
04/11:30pm 13.8 8.6 12.9 94 0.5 WNW 32 41 17 22 1010.9 1010.8 0.6
04/11:25pm 13.8 9.4 12.9 94 0.5 WNW 28 41 15 22 1010.9 1010.8 0.6
04/11:00pm 14.2 8.8 12.8 91 0.8 W 33 59 18 32 1011.4 1011.3 0.6
04/10:58pm 14.6 10.0 13.5 93 0.6 WNW 30 54 16 29 1011.5 1011.4 0.4
04/10:56pm 14.9 10.7 13.6 92 0.7 WNW 28 44 15 24 1011.4 1011.3 0.4
04/10:30pm 15.1 10.9 12.4 84 1.5 NW 26 35 14 19 1010.6 1010.5 0.0
04/10:00pm 15.0 10.3 12.1 83 1.6 NW 28 35 15 19 1010.8 1010.7 0.0
04/09:30pm 15.5 10.8 11.9 79 2.0 NW 28 41 15 22 1010.9 1010.8 0.0
04/09:00pm 16.5 12.7 12.5 77 2.2 WNW 24 35 13 19 1010.9 1010.8 0.0
04/08:30pm 16.9 12.0 12.6 76 2.4 W 30 46 16 25 1010.9 1010.8 0.0
04/08:27pm 17.0 12.5 12.5 75 2.5 WNW 28 46 15 25 1011.0 1010.9 0.0
04/08:00pm 17.4 13.3 11.4 68 3.3 WNW 24 33 13 18 1010.8 1010.7 0.0
04/07:30pm 18.0 11.7 11.1 64 3.7 W 35 48 19 26 1011.0 1010.9 0.0
04/07:00pm 19.0 11.2 11.1 60 4.3 W 43 57 23 31 1010.8 1010.7 0.0
04/06:36pm 20.0 14.5 10.4 54 5.2 WNW 30 48 16 26 1010.7 1010.6 0.0
04/06:30pm 20.0 15.0 11.0 56 4.9 W 28 39 15 21 1010.8 1010.7 0.0
04/06:00pm 19.7 13.4 11.2 58 4.7 W 35 52 19 28 1011.0 1010.9 0.0
04/05:38pm 20.5 14.4 10.3 52 5.5 W 33 52 18 28 1011.1 1011.0 0.0
04/05:30pm 20.8 14.5 10.9 53 5.4 W 35 48 19 26 1011.2 1011.1 0.0
04/05:12pm 21.1 14.7 10.6 51 5.7 W 35 54 19 29 1011.2 1011.1 0.0
04/05:00pm 21.2 14.8 10.7 51 5.8 W 35 46 19 25 1011.4 1011.3 0.0
04/04:30pm 21.1 14.9 11.4 54 5.4 W 35 48 19 26 1011.5 1011.4 0.0
04/04:00pm 21.4 16.1 11.4 53 5.6 W 30 43 16 23 1011.9 1011.8 0.0
04/03:30pm 19.5 13.9 11.5 60 4.4 W 32 41 17 22 1012.6 1012.5 0.0
04/03:00pm 19.1 13.9 12.8 67 3.6 W 32 43 17 23 1012.9 1012.7 0.0
04/02:30pm 19.1 14.8 12.1 64 3.9 W 26 39 14 21 1013.4 1013.2 0.0
04/02:05pm 18.8 13.8 10.9 60 4.3 WNW 28 46 15 25 1013.3 1013.1 0.0
04/02:00pm 19.6 14.9 11.9 61 4.3 NW 28 37 15 20 1013.3 1013.1 0.0
04/01:30pm 18.6 14.3 11.9 65 3.7 WNW 26 41 14 22 1013.7 1013.5 0.0
04/01:00pm 19.3 15.8 12.3 64 3.9 NW 22 39 12 21 1014.0 1013.8 0.0
04/12:30pm 18.4 14.8 11.7 65 3.7 WNW 22 35 12 19 1014.6 1014.4 0.0
04/12:00pm 16.4 11.8 12.4 77 2.2 W 28 35 15 19 1015.2 1015.0 0.0
04/11:30am 17.4 13.3 11.4 68 3.3 NW 24 33 13 18 1015.1 1014.9 0.0
04/11:00am 16.6 12.6 11.9 74 2.6 WNW 24 33 13 18 1015.5 1015.3 0.0
04/10:30am 15.4 11.3 11.4 77 2.2 WNW 24 32 13 17 1015.7 1015.5 0.0
04/10:00am 15.5 11.5 11.7 78 2.1 WNW 24 30 13 16 1015.8 1015.6 0.0
04/09:30am 15.4 12.7 10.4 72 2.6 NW 15 24 8 13 1015.5 1015.3 0.0
04/09:00am 14.5 10.5 10.5 77 2.1 NW 22 28 12 15 1015.4 1015.2 0.0
04/08:30am 13.7 10.6 10.3 80 1.8 NW 17 20 9 11 1015.3 1015.1 0.0
04/08:00am 13.1 10.3 10.1 82 1.6 NW 15 20 8 11 1014.9 1014.7 0.0
04/07:30am 12.7 9.5 10.1 84 1.3 NW 17 20 9 11 1014.6 1014.4 0.0
04/07:00am 12.7 10.4 10.4 86 1.2 NW 13 20 7 11 1014.6 1014.4 0.0
04/06:30am 12.3 10.0 10.4 88 1.0 WNW 13 17 7 9 1014.8 1014.6 0.0
04/06:00am 11.6 8.9 10.5 93 0.6 NW 15 19 8 10 1014.6 1014.4 0.0
04/05:30am 11.4 8.2 10.0 91 0.7 NW 17 20 9 11 1014.9 1014.7 0.0
04/05:00am 11.2 7.6 9.9 92 0.7 NW 19 22 10 12 1015.0 1014.8 0.0
04/04:30am 11.7 8.0 10.1 90 0.8 NW 20 26 11 14 1015.1 1014.9 0.0
04/04:00am 11.4 7.8 9.8 90 0.8 NW 19 22 10 12 1015.2 1015.0 0.0
04/03:30am 11.3 8.1 10.0 92 0.7 NW 17 22 9 12 1015.4 1015.2 0.0
04/03:00am 10.2 7.6 9.4 95 0.4 NW 13 17 7 9 1015.8 1015.6 0.0
04/02:30am 10.0 7.3 8.8 92 0.6 NW 13 17 7 9 1016.2 1016.1 0.0
04/02:00am 11.0 8.1 9.6 91 0.7 NW 15 19 8 10 1016.2 1016.1 0.0
04/01:30am 10.9 8.0 9.7 92 0.6 NW 15 19 8 10 1016.5 1016.4 0.0
04/01:00am 9.9 7.5 8.7 92 0.6 NW 11 15 6 8 1016.6 1016.5 0.0
04/12:30am 10.4 8.2 9.3 93 0.5 NNW 11 13 6 7 1017.1 1017.0 0.0
04/12:00am 9.6 7.2 8.5 93 0.5 NNW 11 13 6 7 1017.3 1017.2 0.0
 
Date/Time
EDT
Temp
°C
App
Temp
°C
Dew
Point
Rel
Hum
%
Delta-T
°C
Wind Press
QNH
hPa
Press
MSL
hPa
Rain
since 9 am
mm
Dir
 
Spd
km/h
Gust
km/h
Spd
kts
Gust
kts
03/11:30pm 9.4 6.7 7.5 88 0.9 NW 11 11 6 6 1017.5 1017.4 0.0
03/11:00pm 11.1 9.1 8.8 86 1.1 NW 9 13 5 7 1017.7 1017.6 0.0
03/10:30pm 11.9 10.1 9.3 84 1.3 WNW 9 11 5 6 1017.9 1017.8 0.0
03/10:00pm 11.4 9.0 8.8 84 1.3 WSW 11 13 6 7 1017.9 1017.8 0.0
03/09:30pm 11.8 9.6 9.2 84 1.3 WSW 11 15 6 8 1017.6 1017.5 0.0
03/09:00pm 12.5 10.6 9.0 79 1.8 WSW 9 13 5 7 1017.4 1017.3 0.0
03/08:30pm 13.5 11.3 9.2 75 2.2 SW 11 13 6 7 1017.2 1017.1 0.0
03/08:00pm 15.3 12.7 9.4 68 3.0 SW 13 17 7 9 1016.9 1016.8 0.0
03/07:30pm 16.7 12.8 9.6 63 3.7 SW 20 22 11 12 1016.7 1016.6 0.0
03/07:00pm 17.4 13.8 10.5 64 3.7 SSW 20 26 11 14 1016.7 1016.6 0.0
03/06:30pm 17.7 13.8 10.8 64 3.7 SSW 22 28 12 15 1016.7 1016.6 0.0
03/06:00pm 18.5 14.7 11.1 62 4.0 SSW 22 32 12 17 1016.5 1016.4 0.0
03/05:30pm 18.9 15.0 10.7 59 4.4 SSW 22 32 12 17 1016.5 1016.4 0.0
03/05:00pm 19.3 15.2 11.3 60 4.4 SSW 24 33 13 18 1016.6 1016.5 0.0
03/04:30pm 19.3 15.0 10.8 58 4.6 SSW 24 32 13 17 1016.7 1016.6 0.0
03/04:00pm 20.1 15.4 10.5 54 5.2 SSW 26 35 14 19 1016.9 1016.8 0.0
03/03:30pm 20.6 16.3 9.5 49 5.9 SSW 22 33 12 18 1017.0 1016.9 0.0
03/03:00pm 20.2 15.6 9.5 50 5.7 SSW 24 33 13 18 1017.4 1017.3 0.0
03/02:30pm 19.9 16.4 10.9 56 4.9 SSW 20 28 11 15 1017.5 1017.4 0.0
03/02:00pm 19.9 15.6 10.6 55 5.0 SSW 24 33 13 18 1017.8 1017.7 0.0
03/01:30pm 20.0 15.5 10.1 53 5.3 SSW 24 35 13 19 1018.0 1017.9 0.0
03/01:00pm 19.6 16.4 9.8 53 5.2 SSW 17 30 9 16 1018.3 1018.2 0.0
03/12:30pm 19.5 16.5 10.5 56 4.9 SSW 17 24 9 13 1018.6 1018.5 0.0
03/12:00pm 19.9 17.7 10.9 56 4.9 S 13 20 7 11 1018.7 1018.6 0.0
03/11:30am 19.3 16.2 10.3 56 4.9 WSW 17 24 9 13 1018.7 1018.6 0.0
03/11:00am 18.6 16.0 10.7 60 4.3 SSW 15 20 8 11 1018.7 1018.6 0.0
03/10:30am 17.3 15.4 10.4 64 3.7 SSW 11 19 6 10 1018.6 1018.5 0.0
03/10:00am 17.3 16.5 11.8 70 3.0 SSE 7 15 4 8 1018.4 1018.3 0.0
03/09:30am 15.6 16.2 11.8 78 2.1 CALM 0 0 0 0 1018.4 1018.3 0.0
03/09:00am 13.9 14.6 13.4 97 0.3 NW 2 7 1 4 1018.1 1018.0 0.0
03/08:30am 13.1 13.3 12.9 99 0.1 NNW 4 7 2 4 1017.9 1017.8 0.0
03/08:00am 10.8 9.7 10.8 100 0.0 NNW 7 9 4 5 1017.9 1017.8 0.0
03/07:30am 8.7 7.1 8.6 99 0.0 NW 7 9 4 5 1017.4 1017.3 0.0
03/07:00am 9.1 7.6 9.0 99 0.0 NW 7 9 4 5 1017.0 1016.9 0.0
03/06:30am 9.0 7.6 8.9 99 0.0 WNW 6 6 3 3 1016.7 1016.6 0.0
03/06:29am 9.2 7.9 9.1 99 0.0 WNW 6 6 3 3 1016.6 1016.5 0.0
03/06:11am 9.1 7.6 9.0 99 0.0 WNW 7 7 4 4 1016.5 1016.4 0.0
03/06:00am 8.7 7.0 8.4 98 0.1 WNW 7 9 4 5 1016.4 1016.3 0.0
03/05:30am 9.8 8.4 9.7 99 0.1 NW 7 9 4 5 1016.5 1016.4 0.0
03/05:00am 10.0 8.8 9.5 97 0.2 WNW 6 9 3 5 1016.3 1016.2 0.0
03/04:30am 10.0 8.6 9.7 98 0.2 NW 7 7 4 4 1016.1 1015.9 0.0
03/04:00am 10.0 8.6 9.5 97 0.2 WNW 7 9 4 5 1016.2 1016.1 0.0
03/03:30am 10.2 9.4 9.6 96 0.3 W 4 7 2 4 1016.4 1016.3 0.0

Other Formats:

Comma delimited format used in spreadsheet applications
http://www.bom.gov.au/fwo/IDV60801/IDV60801.94837.axf

JavaScript Object Notation format (JSON) in row-major order
http://www.bom.gov.au/fwo/IDV60801/IDV60801.94837.json